sensor_id;sensor_type;location;lat;lon;timestamp;pressure;altitude;pressure_sealevel;temperature;humidity
67434;BME280;54305;47.950;6.572;2023-07-20T00:01:58;94351.59;;;15.67;100.00
67434;BME280;54305;47.950;6.572;2023-07-20T00:04:23;94356.09;;;15.73;100.00
67434;BME280;54305;47.950;6.572;2023-07-20T00:06:49;94354.69;;;15.77;100.00
67434;BME280;54305;47.950;6.572;2023-07-20T00:09:14;94350.44;;;15.76;100.00
67434;BME280;54305;47.950;6.572;2023-07-20T00:11:39;94359.88;;;15.64;100.00
67434;BME280;54305;47.950;6.572;2023-07-20T00:14:05;94359.88;;;15.64;100.00
67434;BME280;54305;47.950;6.572;2023-07-20T00:16:30;94350.34;;;15.63;100.00
67434;BME280;54305;47.950;6.572;2023-07-20T00:18:56;94354.63;;;15.64;100.00
67434;BME280;54305;47.950;6.572;2023-07-20T00:21:21;94357.00;;;15.59;100.00
67434;BME280;54305;47.950;6.572;2023-07-20T00:23:46;94356.53;;;15.55;100.00
67434;BME280;54305;47.950;6.572;2023-07-20T00:26:12;94351.28;;;15.49;100.00
67434;BME280;54305;47.950;6.572;2023-07-20T00:28:37;94355.75;;;15.55;100.00
67434;BME280;54305;47.950;6.572;2023-07-20T00:31:02;94354.13;;;15.54;100.00
67434;BME280;54305;47.950;6.572;2023-07-20T00:33:28;94354.88;;;15.48;100.00
67434;BME280;54305;47.950;6.572;2023-07-20T00:35:53;94351.63;;;15.46;100.00
67434;BME280;54305;47.950;6.572;2023-07-20T00:38:18;94358.50;;;15.47;100.00
67434;BME280;54305;47.950;6.572;2023-07-20T00:40:44;94349.78;;;15.40;100.00
67434;BME280;54305;47.950;6.572;2023-07-20T00:43:09;94345.53;;;15.39;100.00
67434;BME280;54305;47.950;6.572;2023-07-20T00:45:35;94345.91;;;15.36;100.00
67434;BME280;54305;47.950;6.572;2023-07-20T00:48:01;94342.28;;;15.37;100.00
67434;BME280;54305;47.950;6.572;2023-07-20T00:50:29;94344.63;;;15.32;100.00
67434;BME280;54305;47.950;6.572;2023-07-20T00:52:54;94347.88;;;15.34;100.00
67434;BME280;54305;47.950;6.572;2023-07-20T00:55:20;94337.28;;;15.21;100.00
67434;BME280;54305;47.950;6.572;2023-07-20T00:57:45;94336.03;;;15.17;100.00
67434;BME280;54305;47.950;6.572;2023-07-20T01:00:11;94335.41;;;15.15;100.00
67434;BME280;54305;47.950;6.572;2023-07-20T01:02:36;94336.78;;;15.11;100.00
67434;BME280;54305;47.950;6.572;2023-07-20T01:05:02;94336.31;;;15.07;100.00
67434;BME280;54305;47.950;6.572;2023-07-20T01:07:31;94337.41;;;15.13;100.00
67434;BME280;54305;47.950;6.572;2023-07-20T01:12:47;94336.03;;;15.17;100.00
67434;BME280;54305;47.950;6.572;2023-07-20T01:15:13;94326.28;;;15.11;100.00
67434;BME280;54305;47.950;6.572;2023-07-20T01:17:39;94333.16;;;14.91;100.00
67434;BME280;54305;47.950;6.572;2023-07-20T01:20:05;94324.28;;;14.92;100.00
67434;BME280;54305;47.950;6.572;2023-07-20T01:25:22;94331.66;;;14.82;100.00
67434;BME280;54305;47.950;6.572;2023-07-20T01:33:05;94318.66;;;14.74;100.00
67434;BME280;54305;47.950;6.572;2023-07-20T01:35:32;94323.84;;;14.67;100.00
67434;BME280;54305;47.950;6.572;2023-07-20T01:37:57;94327.09;;;14.69;100.00
67434;BME280;54305;47.950;6.572;2023-07-20T01:40:23;94323.75;;;14.61;100.00
67434;BME280;54305;47.950;6.572;2023-07-20T01:42:50;94321.78;;;14.63;100.00
67434;BME280;54305;47.950;6.572;2023-07-20T01:45:15;94328.38;;;14.59;100.00
67434;BME280;54305;47.950;6.572;2023-07-20T01:47:41;94319.69;;;14.58;100.00
67434;BME280;54305;47.950;6.572;2023-07-20T01:50:06;94309.69;;;14.62;100.00
67434;BME280;54305;47.950;6.572;2023-07-20T01:52:32;94314.94;;;14.62;100.00
67434;BME280;54305;47.950;6.572;2023-07-20T01:54:57;94310.88;;;14.59;100.00
67434;BME280;54305;47.950;6.572;2023-07-20T01:57:23;94312.06;;;14.57;100.00
67434;BME280;54305;47.950;6.572;2023-07-20T01:59:48;94314.94;;;14.62;100.00
67434;BME280;54305;47.950;6.572;2023-07-20T02:02:13;94308.84;;;14.61;100.00
67434;BME280;54305;47.950;6.572;2023-07-20T02:04:38;94310.78;;;14.53;100.00
67434;BME280;54305;47.950;6.572;2023-07-20T02:07:03;94312.16;;;14.49;100.00
67434;BME280;54305;47.950;6.572;2023-07-20T02:09:29;94309.44;;;14.42;100.00
67434;BME280;54305;47.950;6.572;2023-07-20T02:11:54;94310.28;;;14.43;100.00
67434;BME280;54305;47.950;6.572;2023-07-20T02:14:20;94309.88;;;14.46;100.00
67434;BME280;54305;47.950;6.572;2023-07-20T02:16:47;94310.28;;;14.43;100.00
67434;BME280;54305;47.950;6.572;2023-07-20T02:19:16;94309.81;;;14.39;100.00
67434;BME280;54305;47.950;6.572;2023-07-20T02:21:41;94308.28;;;14.45;100.00
67434;BME280;54305;47.950;6.572;2023-07-20T02:24:06;94313.88;;;14.42;100.00
67434;BME280;54305;47.950;6.572;2023-07-20T02:26:31;94316.97;;;14.31;100.00
67434;BME280;54305;47.950;6.572;2023-07-20T02:28:57;94315.63;;;14.35;100.00
67434;BME280;54305;47.950;6.572;2023-07-20T02:31:22;94313.00;;;14.35;100.00
67434;BME280;54305;47.950;6.572;2023-07-20T02:33:47;94316.63;;;14.34;100.00
67434;BME280;54305;47.950;6.572;2023-07-20T02:36:12;94314.53;;;14.29;100.00
67434;BME280;54305;47.950;6.572;2023-07-20T02:38:38;94317.81;;;14.31;100.00
67434;BME280;54305;47.950;6.572;2023-07-20T02:41:03;94316.97;;;14.31;100.00
67434;BME280;54305;47.950;6.572;2023-07-20T02:43:28;94323.47;;;14.35;100.00
67434;BME280;54305;47.950;6.572;2023-07-20T02:45:53;94329.97;;;14.39;100.00
67434;BME280;54305;47.950;6.572;2023-07-20T02:48:19;94318.84;;;14.37;100.00
67434;BME280;54305;47.950;6.572;2023-07-20T02:50:44;94326.34;;;14.40;100.00
67434;BME280;54305;47.950;6.572;2023-07-20T02:53:09;94318.75;;;14.45;100.00
67434;BME280;54305;47.950;6.572;2023-07-20T02:55:34;94319.56;;;14.45;100.00
67434;BME280;54305;47.950;6.572;2023-07-20T02:58:00;94322.91;;;14.39;100.00
67434;BME280;54305;47.950;6.572;2023-07-20T03:00:25;94322.66;;;14.34;100.00
67434;BME280;54305;47.950;6.572;2023-07-20T03:02:50;94323.84;;;14.32;100.00
67434;BME280;54305;47.950;6.572;2023-07-20T03:05:17;94318.25;;;14.35;100.00
67434;BME280;54305;47.950;6.572;2023-07-20T03:07:43;94314.25;;;14.39;100.00
67434;BME280;54305;47.950;6.572;2023-07-20T03:10:08;94319.84;;;14.36;100.00
67434;BME280;54305;47.950;6.572;2023-07-20T03:12:34;94324.75;;;14.39;100.00
67434;BME280;54305;47.950;6.572;2023-07-20T03:14:59;94316.22;;;14.37;100.00
67434;BME280;54305;47.950;6.572;2023-07-20T03:17:25;94325.63;;;14.46;100.00
67434;BME280;54305;47.950;6.572;2023-07-20T03:19:50;94326.59;;;14.59;100.00
67434;BME280;54305;47.950;6.572;2023-07-20T03:22:15;94322.88;;;14.54;100.00
67434;BME280;54305;47.950;6.572;2023-07-20T03:24:40;94327.88;;;14.49;100.00
67434;BME280;54305;47.950;6.572;2023-07-20T03:27:06;94323.13;;;14.38;100.00
67434;BME280;54305;47.950;6.572;2023-07-20T03:29:31;94321.13;;;14.40;100.00
67434;BME280;54305;47.950;6.572;2023-07-20T03:31:57;94323.47;;;14.35;100.00
67434;BME280;54305;47.950;6.572;2023-07-20T03:34:24;94328.63;;;14.28;100.00
67434;BME280;54305;47.950;6.572;2023-07-20T03:36:49;94335.84;;;14.12;100.00
67434;BME280;54305;47.950;6.572;2023-07-20T03:39:14;94343.09;;;13.95;100.00
67434;BME280;54305;47.950;6.572;2023-07-20T03:41:39;94341.75;;;13.85;100.00
67434;BME280;54305;47.950;6.572;2023-07-20T03:44:05;94341.00;;;13.91;100.00
67434;BME280;54305;47.950;6.572;2023-07-20T03:46:30;94342.19;;;13.88;100.00
67434;BME280;54305;47.950;6.572;2023-07-20T03:48:56;94340.38;;;13.89;100.00
67434;BME280;54305;47.950;6.572;2023-07-20T03:51:21;94337.06;;;13.95;100.00
67434;BME280;54305;47.950;6.572;2023-07-20T03:53:46;94346.78;;;14.01;100.00
67434;BME280;54305;47.950;6.572;2023-07-20T03:56:11;94331.63;;;14.11;100.00
67434;BME280;54305;47.950;6.572;2023-07-20T03:58:37;94338.03;;;14.08;100.00
67434;BME280;54305;47.950;6.572;2023-07-20T04:01:02;94342.81;;;14.05;100.00
67434;BME280;54305;47.950;6.572;2023-07-20T04:03:27;94342.91;;;14.11;100.00
67434;BME280;54305;47.950;6.572;2023-07-20T04:05:53;94346.06;;;14.07;100.00
67434;BME280;54305;47.950;6.572;2023-07-20T04:08:18;94344.09;;;14.09;100.00
67434;BME280;54305;47.950;6.572;2023-07-20T04:10:44;94337.84;;;14.10;100.00
67434;BME280;54305;47.950;6.572;2023-07-20T04:13:09;94349.06;;;14.04;100.00
67434;BME280;54305;47.950;6.572;2023-07-20T04:15:34;94335.97;;;14.04;100.00
67434;BME280;54305;47.950;6.572;2023-07-20T04:18:00;94341.47;;;14.09;100.00
67434;BME280;54305;47.950;6.572;2023-07-20T04:20:25;94345.06;;;14.08;100.00
67434;BME280;54305;47.950;6.572;2023-07-20T04:22:51;94344.88;;;14.09;100.00
67434;BME280;54305;47.950;6.572;2023-07-20T04:25:17;94337.19;;;14.08;100.00
67434;BME280;54305;47.950;6.572;2023-07-20T04:27:42;94330.44;;;14.13;100.00
67434;BME280;54305;47.950;6.572;2023-07-20T04:30:08;94338.72;;;14.17;100.00
67434;BME280;54305;47.950;6.572;2023-07-20T04:32:33;94339.56;;;14.32;100.00
67434;BME280;54305;47.950;6.572;2023-07-20T04:34:59;94334.69;;;14.29;100.00
67434;BME280;54305;47.950;6.572;2023-07-20T04:37:24;94335.06;;;14.26;100.00
67434;BME280;54305;47.950;6.572;2023-07-20T04:39:49;94334.94;;;14.19;100.00
67434;BME280;54305;47.950;6.572;2023-07-20T04:42:15;94342.97;;;14.18;100.00
67434;BME280;54305;47.950;6.572;2023-07-20T04:44:40;94337.72;;;14.18;100.00
67434;BME280;54305;47.950;6.572;2023-07-20T04:47:06;94342.28;;;14.24;100.00
67434;BME280;54305;47.950;6.572;2023-07-20T04:49:31;94339.03;;;14.22;100.00
67434;BME280;54305;47.950;6.572;2023-07-20T04:51:56;94337.72;;;14.18;100.00
67434;BME280;54305;47.950;6.572;2023-07-20T04:54:22;94336.50;;;14.28;100.00
67434;BME280;54305;47.950;6.572;2023-07-20T04:56:47;94338.31;;;14.28;100.00
67434;BME280;54305;47.950;6.572;2023-07-20T04:59:12;94336.94;;;14.32;100.00
67434;BME280;54305;47.950;6.572;2023-07-20T05:01:38;94343.97;;;14.46;100.00
67434;BME280;54305;47.950;6.572;2023-07-20T05:04:03;94343.19;;;14.66;100.00
67434;BME280;54305;47.950;6.572;2023-07-20T05:06:28;94346.06;;;14.71;100.00
67434;BME280;54305;47.950;6.572;2023-07-20T05:08:53;94344.53;;;14.77;100.00
67434;BME280;54305;47.950;6.572;2023-07-20T05:11:19;94344.78;;;14.82;100.00
67434;BME280;54305;47.950;6.572;2023-07-20T05:13:44;94343.00;;;14.89;100.00
67434;BME280;54305;47.950;6.572;2023-07-20T05:16:10;94338.44;;;14.97;100.00
67434;BME280;54305;47.950;6.572;2023-07-20T05:18:35;94346.28;;;15.12;100.00
67434;BME280;54305;47.950;6.572;2023-07-20T05:21:00;94345.50;;;15.18;100.00
67434;BME280;54305;47.950;6.572;2023-07-20T05:23:26;94347.00;;;15.27;100.00
67434;BME280;54305;47.950;6.572;2023-07-20T05:25:57;94333.78;;;15.35;100.00
67434;BME280;54305;47.950;6.572;2023-07-20T05:28:23;94333.22;;;15.39;100.00
67434;BME280;54305;47.950;6.572;2023-07-20T05:30:49;94332.25;;;15.47;100.00
67434;BME280;54305;47.950;6.572;2023-07-20T05:33:16;94340.44;;;15.58;100.00
67434;BME280;54305;47.950;6.572;2023-07-20T05:35:41;94333.22;;;15.67;100.00
67434;BME280;54305;47.950;6.572;2023-07-20T05:38:07;94335.28;;;15.71;100.00
67434;BME280;54305;47.950;6.572;2023-07-20T05:40:32;94336.53;;;15.82;100.00
67434;BME280;54305;47.950;6.572;2023-07-20T05:42:57;94341.66;;;15.90;100.00
67434;BME280;54305;47.950;6.572;2023-07-20T05:45:23;94348.97;;;16.01;100.00
67434;BME280;54305;47.950;6.572;2023-07-20T05:47:49;94333.47;;;16.12;100.00
67434;BME280;54305;47.950;6.572;2023-07-20T05:50:14;94340.00;;;16.23;100.00
67434;BME280;54305;47.950;6.572;2023-07-20T05:52:40;94333.19;;;16.35;100.00
67434;BME280;54305;47.950;6.572;2023-07-20T05:55:05;94335.53;;;16.51;100.00
67434;BME280;54305;47.950;6.572;2023-07-20T05:57:31;94337.81;;;16.67;100.00
67434;BME280;54305;47.950;6.572;2023-07-20T05:59:56;94330.94;;;16.66;100.00
67434;BME280;54305;47.950;6.572;2023-07-20T06:02:21;94332.16;;;16.70;100.00
67434;BME280;54305;47.950;6.572;2023-07-20T06:04:47;94335.34;;;16.65;100.00
67434;BME280;54305;47.950;6.572;2023-07-20T06:07:12;94330.50;;;16.69;100.00
67434;BME280;54305;47.950;6.572;2023-07-20T06:09:37;94331.78;;;16.86;100.00
67434;BME280;54305;47.950;6.572;2023-07-20T06:12:02;94327.34;;;16.86;100.00
67434;BME280;54305;47.950;6.572;2023-07-20T06:14:28;94329.75;;;16.81;100.00
67434;BME280;54305;47.950;6.572;2023-07-20T06:16:53;94326.91;;;16.83;100.00
67434;BME280;54305;47.950;6.572;2023-07-20T06:19:19;94325.28;;;16.82;100.00
67434;BME280;54305;47.950;6.572;2023-07-20T06:21:44;94321.25;;;16.79;100.00
67434;BME280;54305;47.950;6.572;2023-07-20T06:24:09;94328.13;;;16.87;100.00
67434;BME280;54305;47.950;6.572;2023-07-20T06:26:34;94323.09;;;16.92;100.00
67434;BME280;54305;47.950;6.572;2023-07-20T06:29:06;94327.78;;;17.16;100.00
67434;BME280;54305;47.950;6.572;2023-07-20T06:31:31;94325.56;;;17.32;100.00
67434;BME280;54305;47.950;6.572;2023-07-20T06:33:57;94326.19;;;17.28;100.00
67434;BME280;54305;47.950;6.572;2023-07-20T06:36:22;94323.75;;;17.33;100.00
67434;BME280;54305;47.950;6.572;2023-07-20T06:38:47;94316.50;;;17.48;100.00
67434;BME280;54305;47.950;6.572;2023-07-20T06:41:12;94326.19;;;17.41;100.00
67434;BME280;54305;47.950;6.572;2023-07-20T06:43:38;94321.34;;;17.64;100.00
67434;BME280;54305;47.950;6.572;2023-07-20T06:46:03;94327.00;;;17.87;100.00
67434;BME280;54305;47.950;6.572;2023-07-20T06:48:28;94324.94;;;17.89;100.00
67434;BME280;54305;47.950;6.572;2023-07-20T06:50:54;94327.94;;;18.12;100.00
67434;BME280;54305;47.950;6.572;2023-07-20T06:53:19;94327.91;;;18.25;100.00
67434;BME280;54305;47.950;6.572;2023-07-20T06:55:45;94325.31;;;18.18;100.00
67434;BME280;54305;47.950;6.572;2023-07-20T06:58:11;94328.91;;;18.37;100.00
67434;BME280;54305;47.950;6.572;2023-07-20T07:00:36;94319.97;;;18.38;100.00
67434;BME280;54305;47.950;6.572;2023-07-20T07:03:01;94333.31;;;18.49;100.00
67434;BME280;54305;47.950;6.572;2023-07-20T07:05:27;94332.78;;;18.78;100.00
67434;BME280;54305;47.950;6.572;2023-07-20T07:07:53;94330.81;;;18.74;100.00
67434;BME280;54305;47.950;6.572;2023-07-20T07:10:18;94320.19;;;18.87;100.00
67434;BME280;54305;47.950;6.572;2023-07-20T07:12:43;94327.81;;;19.01;99.02
67434;BME280;54305;47.950;6.572;2023-07-20T07:15:09;94330.00;;;19.11;99.56
67434;BME280;54305;47.950;6.572;2023-07-20T07:17:35;94333.66;;;19.41;99.98
67434;BME280;54305;47.950;6.572;2023-07-20T07:20:01;94333.22;;;19.44;95.65
67434;BME280;54305;47.950;6.572;2023-07-20T07:22:26;94338.34;;;19.39;97.25
67434;BME280;54305;47.950;6.572;2023-07-20T07:24:51;94333.38;;;19.49;97.14
67434;BME280;54305;47.950;6.572;2023-07-20T07:27:16;94333.44;;;19.67;94.03
67434;BME280;54305;47.950;6.572;2023-07-20T07:29:42;94334.53;;;19.84;94.19
67434;BME280;54305;47.950;6.572;2023-07-20T07:32:09;94335.38;;;19.78;87.15
67434;BME280;54305;47.950;6.572;2023-07-20T07:34:36;94331.47;;;19.00;86.23
67434;BME280;54305;47.950;6.572;2023-07-20T07:37:01;94319.34;;;19.24;91.12
67434;BME280;54305;47.950;6.572;2023-07-20T07:39:26;94321.03;;;19.43;95.46
67434;BME280;54305;47.950;6.572;2023-07-20T07:41:51;94325.78;;;19.34;91.87
67434;BME280;54305;47.950;6.572;2023-07-20T07:44:17;94332.78;;;18.78;88.16
67434;BME280;54305;47.950;6.572;2023-07-20T07:46:42;94329.72;;;18.88;98.32
67434;BME280;54305;47.950;6.572;2023-07-20T07:49:08;94330.25;;;19.03;94.22
67434;BME280;54305;47.950;6.572;2023-07-20T07:51:33;94330.94;;;19.23;96.94
67434;BME280;54305;47.950;6.572;2023-07-20T07:53:58;94327.03;;;19.56;87.77
67434;BME280;54305;47.950;6.572;2023-07-20T07:56:24;94326.22;;;19.56;87.36
67434;BME280;54305;47.950;6.572;2023-07-20T07:58:49;94333.28;;;19.37;80.80
67434;BME280;54305;47.950;6.572;2023-07-20T08:01:16;94320.88;;;19.07;84.72
67434;BME280;54305;47.950;6.572;2023-07-20T08:03:43;94321.78;;;19.19;91.22
67434;BME280;54305;47.950;6.572;2023-07-20T08:06:11;94327.41;;;18.98;93.10
67434;BME280;54305;47.950;6.572;2023-07-20T08:08:36;94330.31;;;18.90;84.69
67434;BME280;54305;47.950;6.572;2023-07-20T08:11:01;94322.56;;;18.95;86.68
67434;BME280;54305;47.950;6.572;2023-07-20T08:13:26;94311.75;;;19.34;86.84
67434;BME280;54305;47.950;6.572;2023-07-20T08:15:52;94326.00;;;19.82;88.85
67434;BME280;54305;47.950;6.572;2023-07-20T08:18:17;94326.47;;;19.97;86.46
67434;BME280;54305;47.950;6.572;2023-07-20T08:20:46;94321.25;;;20.33;80.69
67434;BME280;54305;47.950;6.572;2023-07-20T08:23:11;94318.00;;;20.49;77.97
67434;BME280;54305;47.950;6.572;2023-07-20T08:25:37;94320.91;;;20.77;72.89
67434;BME280;54305;47.950;6.572;2023-07-20T08:28:04;94314.78;;;21.13;78.10
67434;BME280;54305;47.950;6.572;2023-07-20T08:30:38;94319.50;;;21.22;74.24
67434;BME280;54305;47.950;6.572;2023-07-20T08:33:04;94321.91;;;21.53;72.82
67434;BME280;54305;47.950;6.572;2023-07-20T08:35:29;94320.94;;;21.77;75.55
67434;BME280;54305;47.950;6.572;2023-07-20T08:37:55;94328.53;;;21.97;69.10
67434;BME280;54305;47.950;6.572;2023-07-20T08:40:20;94327.38;;;20.81;64.60
67434;BME280;54305;47.950;6.572;2023-07-20T08:42:45;94331.94;;;20.92;73.84
67434;BME280;54305;47.950;6.572;2023-07-20T08:45:10;94329.25;;;20.27;71.38
67434;BME280;54305;47.950;6.572;2023-07-20T08:47:38;94328.16;;;20.52;86.33
67434;BME280;54305;47.950;6.572;2023-07-20T08:50:05;94327.13;;;20.71;73.99
67434;BME280;54305;47.950;6.572;2023-07-20T08:52:33;94320.03;;;20.83;71.04
67434;BME280;54305;47.950;6.572;2023-07-20T08:54:59;94329.66;;;21.25;75.87
67434;BME280;54305;47.950;6.572;2023-07-20T08:57:28;94321.00;;;21.59;66.31
67434;BME280;54305;47.950;6.572;2023-07-20T08:59:53;94315.72;;;22.05;68.71
67434;BME280;54305;47.950;6.572;2023-07-20T09:02:19;94315.28;;;22.08;70.00
67434;BME280;54305;47.950;6.572;2023-07-20T09:04:46;94312.00;;;21.60;63.55
67434;BME280;54305;47.950;6.572;2023-07-20T09:07:12;94312.50;;;20.98;71.20
67434;BME280;54305;47.950;6.572;2023-07-20T09:09:41;94317.97;;;20.85;68.46
67434;BME280;54305;47.950;6.572;2023-07-20T09:12:13;94315.28;;;20.56;71.89
67434;BME280;54305;47.950;6.572;2023-07-20T09:14:38;94315.81;;;20.28;71.42
67434;BME280;54305;47.950;6.572;2023-07-20T09:17:04;94315.34;;;20.31;69.40
67434;BME280;54305;47.950;6.572;2023-07-20T09:19:29;94318.75;;;20.20;67.93
67434;BME280;54305;47.950;6.572;2023-07-20T09:21:54;94313.81;;;19.81;75.34
67434;BME280;54305;47.950;6.572;2023-07-20T09:24:20;94309.16;;;20.73;80.19
67434;BME280;54305;47.950;6.572;2023-07-20T09:26:46;94299.31;;;21.62;72.39
67434;BME280;54305;47.950;6.572;2023-07-20T09:29:13;94303.56;;;21.52;65.06
67434;BME280;54305;47.950;6.572;2023-07-20T09:31:38;94296.25;;;22.23;62.59
67434;BME280;54305;47.950;6.572;2023-07-20T09:34:05;94296.59;;;22.03;62.32
67434;BME280;54305;47.950;6.572;2023-07-20T09:36:35;94294.00;;;21.62;61.45
67434;BME280;54305;47.950;6.572;2023-07-20T09:39:01;94297.88;;;22.01;57.25
67434;BME280;54305;47.950;6.572;2023-07-20T09:41:26;94299.03;;;21.29;64.79
67434;BME280;54305;47.950;6.572;2023-07-20T09:43:52;94297.56;;;21.45;59.11
67434;BME280;54305;47.950;6.572;2023-07-20T09:46:17;94299.47;;;21.79;64.46
67434;BME280;54305;47.950;6.572;2023-07-20T09:48:54;94293.16;;;21.39;67.79
67434;BME280;54305;47.950;6.572;2023-07-20T09:51:22;94292.09;;;21.28;66.98
67434;BME280;54305;47.950;6.572;2023-07-20T09:53:48;94296.97;;;21.31;73.12
67434;BME280;54305;47.950;6.572;2023-07-20T09:56:15;94305.34;;;21.28;69.00
67434;BME280;54305;47.950;6.572;2023-07-20T09:58:41;94301.56;;;21.24;70.76
67434;BME280;54305;47.950;6.572;2023-07-20T10:01:08;94297.88;;;21.25;66.60
67434;BME280;54305;47.950;6.572;2023-07-20T10:03:34;94302.31;;;21.13;68.13
67434;BME280;54305;47.950;6.572;2023-07-20T10:06:05;94298.19;;;21.81;71.21
67434;BME280;54305;47.950;6.572;2023-07-20T10:08:32;94298.63;;;21.03;62.67
67434;BME280;54305;47.950;6.572;2023-07-20T10:10:59;94289.59;;;20.92;63.88
67434;BME280;54305;47.950;6.572;2023-07-20T10:13:26;94288.88;;;22.02;63.58
67434;BME280;54305;47.950;6.572;2023-07-20T10:16:02;94284.56;;;22.86;57.93
67434;BME280;54305;47.950;6.572;2023-07-20T10:20:54;94275.66;;;24.57;53.00
67434;BME280;54305;47.950;6.572;2023-07-20T10:23:19;94262.66;;;25.09;49.81
67434;BME280;54305;47.950;6.572;2023-07-20T10:25:45;94265.09;;;24.62;51.45
67434;BME280;54305;47.950;6.572;2023-07-20T10:28:11;94271.66;;;23.51;51.33
67434;BME280;54305;47.950;6.572;2023-07-20T10:30:37;94272.41;;;23.46;58.61
67434;BME280;54305;47.950;6.572;2023-07-20T10:33:02;94247.53;;;24.23;54.01
67434;BME280;54305;47.950;6.572;2023-07-20T10:35:29;94260.22;;;23.06;52.56
67434;BME280;54305;47.950;6.572;2023-07-20T10:37:59;94250.97;;;22.41;53.81
67434;BME280;54305;47.950;6.572;2023-07-20T10:43:09;94232.81;;;24.42;51.39
67434;BME280;54305;47.950;6.572;2023-07-20T10:48:12;94240.97;;;23.27;51.34
67434;BME280;54305;47.950;6.572;2023-07-20T10:50:39;94243.00;;;23.08;48.56
67434;BME280;54305;47.950;6.572;2023-07-20T10:53:14;94240.97;;;23.76;51.69
67434;BME280;54305;47.950;6.572;2023-07-20T10:55:40;94235.56;;;24.26;52.47
67434;BME280;54305;47.950;6.572;2023-07-20T10:58:09;94232.22;;;23.15;52.42
67434;BME280;54305;47.950;6.572;2023-07-20T11:00:35;94231.00;;;23.06;57.40
67434;BME280;54305;47.950;6.572;2023-07-20T11:03:00;94228.66;;;23.09;55.11
67434;BME280;54305;47.950;6.572;2023-07-20T11:05:32;94229.88;;;23.46;59.36
67434;BME280;54305;47.950;6.572;2023-07-20T11:07:58;94220.97;;;23.74;53.09
67434;BME280;54305;47.950;6.572;2023-07-20T11:10:23;94220.66;;;23.70;50.65
67434;BME280;54305;47.950;6.572;2023-07-20T11:18:30;94234.59;;;23.00;53.73
67434;BME280;54305;47.950;6.572;2023-07-20T11:20:58;94238.16;;;23.05;57.38
67434;BME280;54305;47.950;6.572;2023-07-20T11:23:23;94233.13;;;22.92;57.00
67434;BME280;54305;47.950;6.572;2023-07-20T11:25:49;94225.81;;;23.27;54.50
67434;BME280;54305;47.950;6.572;2023-07-20T11:28:15;94228.94;;;22.80;55.19
67434;BME280;54305;47.950;6.572;2023-07-20T11:30:40;94227.22;;;23.84;59.93
67434;BME280;54305;47.950;6.572;2023-07-20T11:33:08;94210.34;;;23.90;55.21
67434;BME280;54305;47.950;6.572;2023-07-20T11:35:41;94211.47;;;24.37;54.50
67434;BME280;54305;47.950;6.572;2023-07-20T11:38:07;94212.50;;;23.93;52.87
67434;BME280;54305;47.950;6.572;2023-07-20T11:40:32;94218.03;;;23.09;52.83
67434;BME280;54305;47.950;6.572;2023-07-20T11:42:58;94218.56;;;23.56;54.33
67434;BME280;54305;47.950;6.572;2023-07-20T11:45:23;94208.25;;;24.57;50.34
67434;BME280;54305;47.950;6.572;2023-07-20T11:47:50;94209.88;;;25.32;49.06
67434;BME280;54305;47.950;6.572;2023-07-20T11:50:15;94210.38;;;24.55;51.14
67434;BME280;54305;47.950;6.572;2023-07-20T11:52:41;94218.81;;;23.54;49.56
67434;BME280;54305;47.950;6.572;2023-07-20T11:55:07;94207.94;;;23.39;47.94
67434;BME280;54305;47.950;6.572;2023-07-20T11:57:32;94205.06;;;24.33;47.54
67434;BME280;54305;47.950;6.572;2023-07-20T12:00:01;94195.25;;;25.40;46.58
67434;BME280;54305;47.950;6.572;2023-07-20T12:02:30;94194.81;;;25.89;46.65
67434;BME280;54305;47.950;6.572;2023-07-20T12:04:56;94193.34;;;24.56;45.23
67434;BME280;54305;47.950;6.572;2023-07-20T12:07:22;94190.88;;;24.97;42.51
67434;BME280;54305;47.950;6.572;2023-07-20T12:10:03;94191.63;;;25.24;43.69
67434;BME280;54305;47.950;6.572;2023-07-20T12:12:31;94185.41;;;26.23;48.12
67434;BME280;54305;47.950;6.572;2023-07-20T12:15:11;94177.59;;;25.02;46.73
67434;BME280;54305;47.950;6.572;2023-07-20T12:17:41;94187.91;;;24.03;45.48
67434;BME280;54305;47.950;6.572;2023-07-20T12:20:06;94190.22;;;23.28;49.84
67434;BME280;54305;47.950;6.572;2023-07-20T12:22:32;94176.47;;;24.72;48.38
67434;BME280;54305;47.950;6.572;2023-07-20T12:25:05;94171.09;;;24.45;47.81
67434;BME280;54305;47.950;6.572;2023-07-20T12:27:30;94168.44;;;24.93;45.15
67434;BME280;54305;47.950;6.572;2023-07-20T12:29:55;94179.09;;;24.93;43.73
67434;BME280;54305;47.950;6.572;2023-07-20T12:32:22;94171.81;;;24.84;44.19
67434;BME280;54305;47.950;6.572;2023-07-20T12:34:47;94171.94;;;25.25;47.55
67434;BME280;54305;47.950;6.572;2023-07-20T12:37:13;94163.41;;;24.70;44.40
67434;BME280;54305;47.950;6.572;2023-07-20T12:39:38;94169.03;;;25.00;46.55
67434;BME280;54305;47.950;6.572;2023-07-20T12:42:04;94158.31;;;25.58;47.13
67434;BME280;54305;47.950;6.572;2023-07-20T12:44:29;94151.63;;;24.93;44.47
67434;BME280;54305;47.950;6.572;2023-07-20T12:46:55;94163.63;;;25.53;46.19
67434;BME280;54305;47.950;6.572;2023-07-20T12:49:21;94155.03;;;25.88;44.22
67434;BME280;54305;47.950;6.572;2023-07-20T12:51:46;94154.66;;;25.01;44.82
67434;BME280;54305;47.950;6.572;2023-07-20T12:54:11;94157.28;;;24.96;45.70
67434;BME280;54305;47.950;6.572;2023-07-20T12:56:37;94149.22;;;24.38;44.42
67434;BME280;54305;47.950;6.572;2023-07-20T12:59:02;94158.34;;;23.83;44.16
67434;BME280;54305;47.950;6.572;2023-07-20T13:01:28;94154.16;;;24.08;49.98
67434;BME280;54305;47.950;6.572;2023-07-20T13:03:53;94158.06;;;24.22;42.56
67434;BME280;54305;47.950;6.572;2023-07-20T13:06:19;94155.94;;;24.46;44.19
67434;BME280;54305;47.950;6.572;2023-07-20T13:08:45;94143.38;;;23.98;40.67
67434;BME280;54305;47.950;6.572;2023-07-20T13:11:10;94141.91;;;24.77;40.07
67434;BME280;54305;47.950;6.572;2023-07-20T13:13:35;94152.31;;;24.30;41.21